McCamey, Texas
Current Conditions -  °F | °C
As of 10:53 AM on Wednesday 26 Nov 2014 (Local Time) from KFST Reporting Station
Clear Clear  
Wind Chill: 64°   Ceiling: Unl
Heat Index: 64°   Visibility: 10mi
Dew Point: 14°   Wind: 9mph
Humidity: 14%   Direction: 280°W
Pressure: 30.29"   Gusts: NA
Location:  31.14°N, 102.22°W
Report Text: KFST 261653Z AUTO 28008KT 10SM CLR 18/M10 A3029 RMK AO2 SLP232 T01781100
Loading
Personal Weather Stations






























Interactive Weather Map New forecast layout! Learn more

10-Day Weather Forecast

Advertisements
Track Severe Weather on mobile